createdAt,value
2018-12-26T00:00:04.257Z,3.60
2018-12-26T00:02:33.250Z,3.60
2018-12-26T00:05:01.985Z,3.60
2018-12-26T00:07:31.053Z,3.60
2018-12-26T00:09:59.762Z,3.60
2018-12-26T00:12:28.749Z,3.60
2018-12-26T00:14:57.482Z,3.60
2018-12-26T00:17:26.220Z,3.60
2018-12-26T00:19:54.964Z,3.60
2018-12-26T00:22:23.729Z,3.60
2018-12-26T00:24:52.477Z,3.60
2018-12-26T00:27:21.188Z,3.60
2018-12-26T00:29:50.654Z,3.50
2018-12-26T00:32:19.856Z,3.50
2018-12-26T00:34:48.845Z,3.50
2018-12-26T00:37:17.861Z,3.50
2018-12-26T00:39:47.996Z,3.40
2018-12-26T00:42:16.923Z,3.40
2018-12-26T00:44:45.629Z,3.40
2018-12-26T00:47:14.371Z,3.40
2018-12-26T00:49:43.077Z,3.40
2018-12-26T00:52:11.813Z,3.40
2018-12-26T00:54:40.554Z,3.30
2018-12-26T00:57:09.285Z,3.30
2018-12-26T00:59:38.181Z,3.20
2018-12-26T01:02:07.445Z,3.20
2018-12-26T01:04:36.220Z,3.20
2018-12-26T01:07:05.189Z,3.20
2018-12-26T01:09:33.960Z,3.10
2018-12-26T01:12:02.737Z,3.10
2018-12-26T01:14:31.448Z,3.00
2018-12-26T01:17:00.437Z,3.00
2018-12-26T01:19:30.221Z,3.00
2018-12-26T01:21:58.936Z,2.90
2018-12-26T01:24:27.902Z,2.90
2018-12-26T01:26:56.862Z,2.80
2018-12-26T01:29:26.324Z,2.80
2018-12-26T01:31:55.077Z,2.70
2018-12-26T01:34:23.829Z,2.70
2018-12-26T01:36:52.556Z,2.60
2018-12-26T01:39:21.529Z,2.60
2018-12-26T01:41:50.253Z,2.60
2018-12-26T01:44:18.969Z,2.50
2018-12-26T01:46:47.697Z,2.50
2018-12-26T01:49:16.666Z,2.50
2018-12-26T01:51:45.892Z,2.50
2018-12-26T01:54:14.610Z,2.50
2018-12-26T01:56:43.405Z,2.50
2018-12-26T01:59:12.602Z,2.50
2018-12-26T02:01:41.570Z,2.50
2018-12-26T02:04:10.376Z,2.40
2018-12-26T02:06:39.193Z,2.40
2018-12-26T02:09:08.593Z,2.40
2018-12-26T02:11:37.333Z,2.40
2018-12-26T02:14:06.045Z,2.40
2018-12-26T02:16:34.797Z,2.30
2018-12-26T02:19:03.510Z,2.30
2018-12-26T02:21:32.471Z,2.30
2018-12-26T02:24:01.702Z,2.30
2018-12-26T02:26:36.427Z,2.30
2018-12-26T02:29:00.860Z,2.20
2018-12-26T02:31:29.852Z,2.20
2018-12-26T02:33:59.088Z,2.20
2018-12-26T02:36:27.809Z,2.20
2018-12-26T02:38:57.033Z,2.10
2018-12-26T02:41:26.278Z,2.10
2018-12-26T02:43:55.021Z,2.10
2018-12-26T02:46:23.857Z,2.00
2018-12-26T02:48:52.629Z,2.00
2018-12-26T02:51:21.372Z,2.00
2018-12-26T02:53:50.350Z,1.90
2018-12-26T02:56:19.410Z,2.00
2018-12-26T02:58:48.357Z,2.00
2018-12-26T03:01:17.218Z,1.90
2018-12-26T03:03:46.005Z,1.90
2018-12-26T03:06:14.723Z,1.90
2018-12-26T03:08:43.449Z,1.90
2018-12-26T03:11:12.467Z,2.00
2018-12-26T03:13:41.202Z,2.00
2018-12-26T03:16:10.281Z,2.00
2018-12-26T03:18:39.314Z,2.00
2018-12-26T03:21:08.108Z,2.10
2018-12-26T03:23:36.832Z,2.10
2018-12-26T03:26:05.688Z,2.00
2018-12-26T03:28:34.409Z,2.00
2018-12-26T03:31:03.382Z,2.00
2018-12-26T03:33:32.194Z,2.00
2018-12-26T03:36:01.190Z,1.90
2018-12-26T03:38:30.201Z,1.90
2018-12-26T03:40:58.969Z,1.90
2018-12-26T03:43:28.343Z,1.90
2018-12-26T03:45:57.271Z,1.90
2018-12-26T03:48:27.024Z,1.90
2018-12-26T03:50:55.754Z,1.90
2018-12-26T03:53:24.754Z,2.00
2018-12-26T03:55:53.830Z,1.90
2018-12-26T03:58:22.793Z,1.90
2018-12-26T04:00:51.837Z,2.00
2018-12-26T04:03:39.780Z,2.00
2018-12-26T04:06:08.876Z,2.00
2018-12-26T04:08:37.861Z,1.90
2018-12-26T04:11:07.122Z,2.00
2018-12-26T04:13:35.838Z,2.00
2018-12-26T04:16:04.740Z,2.00
2018-12-26T04:18:33.705Z,2.00
2018-12-26T04:21:02.533Z,2.00
2018-12-26T04:23:31.329Z,2.00
2018-12-26T04:26:00.066Z,2.10
2018-12-26T04:28:28.806Z,2.10
2018-12-26T04:30:57.791Z,2.10
2018-12-26T04:33:26.821Z,2.10
2018-12-26T04:35:55.807Z,2.00
2018-12-26T04:38:24.827Z,2.10
2018-12-26T04:40:53.834Z,2.10
2018-12-26T04:43:22.825Z,2.10
2018-12-26T04:45:51.804Z,2.10
2018-12-26T04:48:20.527Z,2.20
2018-12-26T04:50:49.500Z,2.10
2018-12-26T04:53:18.249Z,2.10
2018-12-26T04:55:47.212Z,2.20
2018-12-26T04:58:15.963Z,2.20
2018-12-26T05:00:44.702Z,2.20
2018-12-26T05:03:13.657Z,2.20
2018-12-26T05:05:42.395Z,2.30
2018-12-26T05:08:11.356Z,2.30
2018-12-26T05:10:40.152Z,2.40
2018-12-26T05:13:08.997Z,2.40
2018-12-26T05:15:38.250Z,2.40
2018-12-26T05:18:07.534Z,2.50
2018-12-26T05:20:36.547Z,2.50
2018-12-26T05:23:05.912Z,2.60
2018-12-26T05:25:34.812Z,2.50
2018-12-26T05:28:03.555Z,2.50
2018-12-26T05:30:32.260Z,2.40
2018-12-26T05:33:01.076Z,2.50
2018-12-26T05:35:30.126Z,2.40
2018-12-26T05:37:59.100Z,2.40
2018-12-26T05:40:27.862Z,2.40
2018-12-26T05:42:56.901Z,2.40
2018-12-26T05:45:25.987Z,2.40
2018-12-26T05:47:54.917Z,2.40
2018-12-26T05:50:23.894Z,2.50
2018-12-26T05:52:52.596Z,2.50
2018-12-26T05:55:21.325Z,2.50
2018-12-26T05:57:50.032Z,2.40
2018-12-26T06:00:18.778Z,2.40
2018-12-26T06:02:47.809Z,2.40
2018-12-26T06:05:16.608Z,2.40
2018-12-26T06:07:45.599Z,2.50
2018-12-26T06:10:14.664Z,2.50
2018-12-26T06:12:43.374Z,2.50
2018-12-26T06:15:12.399Z,2.50
2018-12-26T06:17:41.569Z,2.40
2018-12-26T06:20:10.320Z,2.50
2018-12-26T06:22:39.314Z,2.50
2018-12-26T06:25:08.041Z,2.50
2018-12-26T06:27:37.249Z,2.40
2018-12-26T06:30:06.124Z,2.40
2018-12-26T06:32:35.129Z,2.40
2018-12-26T06:35:03.917Z,2.40
2018-12-26T06:37:32.739Z,2.50
2018-12-26T06:40:01.971Z,2.50
2018-12-26T06:42:31.193Z,2.40
2018-12-26T06:45:00.011Z,2.40
2018-12-26T06:47:28.996Z,2.40
2018-12-26T06:49:58.209Z,2.40
2018-12-26T06:52:27.194Z,2.50
2018-12-26T06:54:56.153Z,2.40
2018-12-26T06:57:25.368Z,2.40
2018-12-26T06:59:54.130Z,2.40
2018-12-26T07:02:22.940Z,2.40
2018-12-26T07:04:51.692Z,2.40
2018-12-26T07:07:20.650Z,2.30
2018-12-26T07:09:49.617Z,2.20
2018-12-26T07:12:18.338Z,2.20
2018-12-26T07:14:47.070Z,2.10
2018-12-26T07:17:16.062Z,2.00
2018-12-26T07:19:45.050Z,2.00
2018-12-26T07:22:13.764Z,2.00
2018-12-26T07:24:42.503Z,2.00
2018-12-26T07:27:11.227Z,1.90
2018-12-26T07:29:40.173Z,1.90
2018-12-26T07:32:09.176Z,2.00
2018-12-26T07:34:42.141Z,2.00
2018-12-26T07:37:08.857Z,2.00
2018-12-26T07:39:37.577Z,2.10
2018-12-26T07:42:06.425Z,2.00
2018-12-26T07:44:35.211Z,2.10
2018-12-26T07:47:04.278Z,2.10
2018-12-26T07:49:33.225Z,2.10
2018-12-26T07:52:01.970Z,2.10
2018-12-26T07:54:31.328Z,2.10
2018-12-26T07:57:00.047Z,2.10
2018-12-26T07:59:37.380Z,2.10
2018-12-26T08:01:59.736Z,2.10
2018-12-26T08:04:28.721Z,2.10
2018-12-26T08:06:57.712Z,2.20
2018-12-26T08:09:26.490Z,2.20
2018-12-26T08:11:55.208Z,2.20
2018-12-26T08:14:24.167Z,2.20
2018-12-26T08:16:53.429Z,2.30
2018-12-26T08:19:22.273Z,2.20
2018-12-26T08:21:51.497Z,2.20
2018-12-26T08:24:20.456Z,2.30
2018-12-26T08:26:49.439Z,2.30
2018-12-26T08:29:18.439Z,2.40
2018-12-26T08:31:47.150Z,2.40
2018-12-26T08:34:16.389Z,2.40
2018-12-26T08:36:45.454Z,2.50
2018-12-26T08:39:14.443Z,2.50
2018-12-26T08:41:43.154Z,2.60
2018-12-26T08:44:12.180Z,2.60
2018-12-26T08:46:41.129Z,2.60
2018-12-26T08:49:10.348Z,2.60
2018-12-26T08:51:40.819Z,2.60
2018-12-26T08:54:10.009Z,2.70
2018-12-26T08:56:38.728Z,2.70
2018-12-26T08:59:07.437Z,2.70
2018-12-26T09:01:36.450Z,2.70
2018-12-26T09:04:05.456Z,2.70
2018-12-26T09:06:34.199Z,2.70
2018-12-26T09:09:04.724Z,2.70
2018-12-26T09:11:33.460Z,2.70
2018-12-26T09:14:02.253Z,2.80
2018-12-26T09:16:31.212Z,2.80
2018-12-26T09:18:59.916Z,2.80
2018-12-26T09:21:28.921Z,2.90
2018-12-26T09:23:57.861Z,2.90
2018-12-26T09:26:26.668Z,2.90
2018-12-26T09:28:55.412Z,2.90
2018-12-26T09:31:25.437Z,2.90
2018-12-26T09:33:54.189Z,2.90
2018-12-26T09:36:22.910Z,2.90
2018-12-26T09:38:51.897Z,2.90
2018-12-26T09:41:20.601Z,2.80
2018-12-26T09:43:49.632Z,2.80
2018-12-26T09:46:18.361Z,2.80
2018-12-26T09:48:47.073Z,2.80
2018-12-26T09:51:16.042Z,2.80
2018-12-26T09:53:44.750Z,2.70
2018-12-26T09:56:13.745Z,2.70
2018-12-26T09:58:43.461Z,2.70
2018-12-26T10:01:12.214Z,2.60
2018-12-26T10:03:40.962Z,2.60
2018-12-26T10:06:09.678Z,2.60
2018-12-26T10:08:38.651Z,2.70
2018-12-26T10:11:07.637Z,2.80
2018-12-26T10:13:36.584Z,2.80
2018-12-26T10:16:05.394Z,2.90
2018-12-26T10:18:34.349Z,2.90
2018-12-26T10:21:03.331Z,2.90
2018-12-26T10:23:32.357Z,3.00
2018-12-26T10:26:01.584Z,3.00
2018-12-26T10:28:30.402Z,2.90
2018-12-26T10:30:59.656Z,2.90
2018-12-26T10:33:28.476Z,2.90
2018-12-26T10:35:57.191Z,3.00
2018-12-26T10:38:26.740Z,3.10
2018-12-26T10:40:55.454Z,3.00
2018-12-26T10:43:24.188Z,3.10
2018-12-26T10:45:52.931Z,3.00
2018-12-26T10:48:21.667Z,3.00
2018-12-26T10:50:50.393Z,3.10
2018-12-26T10:53:19.382Z,3.10
2018-12-26T10:55:48.360Z,3.10
2018-12-26T10:58:17.101Z,3.10
2018-12-26T11:00:46.050Z,3.20
2018-12-26T11:03:15.048Z,3.20
2018-12-26T11:05:43.761Z,3.20
2018-12-26T11:08:12.828Z,3.30
2018-12-26T11:10:41.789Z,3.30
2018-12-26T11:13:10.509Z,3.30
2018-12-26T11:15:39.490Z,3.30
2018-12-26T11:18:08.392Z,3.30
2018-12-26T11:20:37.607Z,3.30
2018-12-26T11:23:06.638Z,3.40
2018-12-26T11:25:35.360Z,3.40
2018-12-26T11:28:04.064Z,3.50
2018-12-26T11:30:32.805Z,3.50
2018-12-26T11:33:01.554Z,3.40
2018-12-26T11:35:30.332Z,3.40
2018-12-26T11:37:59.076Z,3.30
2018-12-26T11:40:28.132Z,3.30
2018-12-26T11:42:56.874Z,3.40
2018-12-26T11:45:25.621Z,3.30
2018-12-26T11:47:54.436Z,3.30
2018-12-26T11:50:23.140Z,3.40
2018-12-26T11:52:52.618Z,3.40
2018-12-26T11:55:21.654Z,3.40
2018-12-26T11:57:50.408Z,3.40
2018-12-26T12:00:19.140Z,3.50
2018-12-26T12:02:48.210Z,3.50
2018-12-26T12:05:17.086Z,3.50
2018-12-26T12:07:45.977Z,3.50
2018-12-26T12:10:15.293Z,3.60
2018-12-26T12:12:44.053Z,3.60
2018-12-26T12:15:12.768Z,3.60
2018-12-26T12:17:41.796Z,3.70
2018-12-26T12:20:11.006Z,3.70
2018-12-26T12:22:39.965Z,3.70
2018-12-26T12:25:09.026Z,3.70
2018-12-26T12:27:37.736Z,3.70
2018-12-26T12:30:06.828Z,3.70
2018-12-26T12:32:35.577Z,3.80
2018-12-26T12:35:04.670Z,3.80
2018-12-26T12:37:33.758Z,3.80
2018-12-26T12:40:03.251Z,3.90
2018-12-26T12:42:32.094Z,3.90
2018-12-26T12:45:01.329Z,3.90
2018-12-26T12:47:30.151Z,3.90
2018-12-26T12:49:59.010Z,4.00
2018-12-26T12:52:27.709Z,4.00
2018-12-26T12:54:56.496Z,4.10
2018-12-26T12:57:25.235Z,4.10
2018-12-26T12:59:54.141Z,4.10
2018-12-26T13:02:23.417Z,4.10
2018-12-26T13:04:52.189Z,4.10
2018-12-26T13:07:20.929Z,4.10
2018-12-26T13:09:49.881Z,4.20
2018-12-26T13:12:18.916Z,4.20
2018-12-26T13:14:47.656Z,4.20
2018-12-26T13:17:16.604Z,4.20
2018-12-26T13:19:45.338Z,4.20
2018-12-26T13:22:14.339Z,4.20
2018-12-26T13:24:43.072Z,4.20
2018-12-26T13:27:11.804Z,4.30
2018-12-26T13:29:42.176Z,4.30
2018-12-26T13:32:11.068Z,4.20
2018-12-26T13:34:40.041Z,4.30
2018-12-26T13:37:09.007Z,4.30
2018-12-26T13:39:38.192Z,4.30
2018-12-26T13:42:08.235Z,4.30
2018-12-26T13:44:37.193Z,4.40
2018-12-26T13:47:06.012Z,4.40
2018-12-26T13:49:34.976Z,4.40
2018-12-26T13:52:04.197Z,4.40
2018-12-26T13:54:32.916Z,4.40
2018-12-26T13:57:02.137Z,4.40
2018-12-26T13:59:30.846Z,4.40
2018-12-26T14:01:59.586Z,4.40
2018-12-26T14:04:28.341Z,4.50
2018-12-26T14:06:57.057Z,4.50
2018-12-26T14:09:25.809Z,4.50
2018-12-26T14:11:54.525Z,4.40
2018-12-26T14:14:23.286Z,4.40
2018-12-26T14:16:52.069Z,4.40
2018-12-26T14:19:20.823Z,4.40
2018-12-26T14:21:49.591Z,4.40
2018-12-26T14:24:18.320Z,4.30
2018-12-26T14:26:47.321Z,4.30
2018-12-26T14:29:16.070Z,4.30
2018-12-26T14:31:45.261Z,4.30
2018-12-26T14:34:13.962Z,4.30
2018-12-26T14:36:42.708Z,4.30
2018-12-26T14:39:11.672Z,4.40
2018-12-26T14:41:40.389Z,4.40
2018-12-26T14:44:09.151Z,4.40
2018-12-26T14:46:37.876Z,4.40
2018-12-26T14:49:06.866Z,4.40
2018-12-26T14:51:35.705Z,4.50
2018-12-26T14:54:04.420Z,4.40
2018-12-26T14:56:33.237Z,4.50
2018-12-26T14:59:02.324Z,4.50
2018-12-26T15:01:31.067Z,4.50
2018-12-26T15:03:59.857Z,4.50
2018-12-26T15:06:28.628Z,4.50
2018-12-26T15:08:57.386Z,4.50
2018-12-26T15:11:26.625Z,4.50
2018-12-26T15:13:55.408Z,4.50
2018-12-26T15:16:24.149Z,4.50
2018-12-26T15:18:52.889Z,4.50
2018-12-26T15:21:21.873Z,4.50
2018-12-26T15:23:50.847Z,4.50
2018-12-26T15:26:19.855Z,4.50
2018-12-26T15:28:48.612Z,4.50
2018-12-26T15:31:17.352Z,4.50
2018-12-26T15:33:46.332Z,4.60
2018-12-26T15:36:15.040Z,4.60
2018-12-26T15:38:43.992Z,4.60
2018-12-26T15:41:12.703Z,4.60
2018-12-26T15:43:41.413Z,4.60
2018-12-26T15:46:10.133Z,4.60
2018-12-26T15:48:38.869Z,4.60
2018-12-26T15:51:07.620Z,4.60
2018-12-26T15:53:36.620Z,4.60
2018-12-26T15:56:05.589Z,4.60
2018-12-26T15:58:34.317Z,4.60
2018-12-26T16:01:03.036Z,4.60
2018-12-26T16:03:31.769Z,4.60
2018-12-26T16:06:00.581Z,4.60
2018-12-26T16:08:29.311Z,4.60
2018-12-26T16:10:58.024Z,4.60
2018-12-26T16:13:27.002Z,4.60
2018-12-26T16:15:55.966Z,4.60
2018-12-26T16:18:24.678Z,4.60
2018-12-26T16:20:53.662Z,4.50
2018-12-26T16:23:22.401Z,4.60
2018-12-26T16:25:51.437Z,4.60
2018-12-26T16:28:20.229Z,4.60
2018-12-26T16:30:49.516Z,4.60
2018-12-26T16:33:18.497Z,4.60
2018-12-26T16:35:47.210Z,4.60
2018-12-26T16:38:16.001Z,4.60
2018-12-26T16:40:44.748Z,4.60
2018-12-26T16:43:13.706Z,4.60
2018-12-26T16:45:42.450Z,4.70
2018-12-26T16:48:11.206Z,4.70
2018-12-26T16:50:40.174Z,4.70
2018-12-26T16:53:08.885Z,4.70
2018-12-26T16:55:38.158Z,4.70
2018-12-26T16:58:06.866Z,4.70
2018-12-26T17:00:35.845Z,4.70
2018-12-26T17:03:04.816Z,4.80
2018-12-26T17:05:33.561Z,4.80
2018-12-26T17:08:02.593Z,4.80
2018-12-26T17:10:31.700Z,4.80
2018-12-26T17:13:00.423Z,4.80
2018-12-26T17:15:29.405Z,4.80
2018-12-26T17:17:58.125Z,4.80
2018-12-26T17:20:26.851Z,4.80
2018-12-26T17:22:55.848Z,4.80
2018-12-26T17:25:24.589Z,4.80
2018-12-26T17:27:53.557Z,4.80
2018-12-26T17:30:22.603Z,4.80
2018-12-26T17:33:00.375Z,4.80
2018-12-26T17:35:22.529Z,4.80
2018-12-26T17:37:51.582Z,4.80
2018-12-26T17:40:20.309Z,4.80
2018-12-26T17:42:49.515Z,4.80
2018-12-26T17:45:24.777Z,4.80
2018-12-26T17:47:53.520Z,4.80
2018-12-26T17:50:45.637Z,4.80
2018-12-26T17:53:53.904Z,4.80
2018-12-26T17:56:34.432Z,4.70
2018-12-26T17:59:24.694Z,4.60
2018-12-26T18:02:01.547Z,4.60
2018-12-26T18:04:30.271Z,4.60
2018-12-26T18:06:58.977Z,4.60
2018-12-26T18:09:27.715Z,4.60
2018-12-26T18:11:56.454Z,4.70
2018-12-26T18:14:25.189Z,4.70
2018-12-26T18:16:53.954Z,4.80
2018-12-26T18:19:23.136Z,4.80
2018-12-26T18:21:51.964Z,4.80
2018-12-26T18:24:20.928Z,4.80
2018-12-26T18:26:49.793Z,4.80
2018-12-26T18:29:18.553Z,4.90
2018-12-26T18:31:47.260Z,4.90
2018-12-26T18:34:16.266Z,4.90
2018-12-26T18:36:45.322Z,4.90
2018-12-26T18:39:14.032Z,4.90
2018-12-26T18:41:42.986Z,4.90
2018-12-26T18:44:11.965Z,4.90
2018-12-26T18:46:40.716Z,4.90
2018-12-26T18:49:09.713Z,4.90
2018-12-26T18:51:38.459Z,4.90
2018-12-26T18:54:07.207Z,4.90
2018-12-26T18:56:36.155Z,4.90
2018-12-26T18:59:05.106Z,5.00
2018-12-26T19:01:34.114Z,5.00
2018-12-26T19:04:02.823Z,5.00
2018-12-26T19:06:31.814Z,5.00
2018-12-26T19:09:00.554Z,5.00
2018-12-26T19:11:29.552Z,5.00
2018-12-26T19:13:58.493Z,5.00
2018-12-26T19:16:27.453Z,5.00
2018-12-26T19:18:56.216Z,5.10
2018-12-26T19:21:24.980Z,5.10
2018-12-26T19:23:53.688Z,5.10
2018-12-26T19:26:22.477Z,5.00
2018-12-26T19:28:51.193Z,5.10
2018-12-26T19:31:19.916Z,5.10
2018-12-26T19:33:48.925Z,5.10
2018-12-26T19:36:17.709Z,5.10
2018-12-26T19:38:46.677Z,5.10
2018-12-26T19:41:15.672Z,5.10
2018-12-26T19:43:44.431Z,5.10
2018-12-26T19:46:13.225Z,5.00
2018-12-26T19:48:42.433Z,5.00
2018-12-26T19:51:11.210Z,5.00
2018-12-26T19:53:40.204Z,4.90
2018-12-26T19:56:09.001Z,5.00
2018-12-26T19:58:37.709Z,5.00
2018-12-26T20:01:06.460Z,5.00
2018-12-26T20:03:35.170Z,5.00
2018-12-26T20:06:04.145Z,5.00
2018-12-26T20:08:32.961Z,5.10
2018-12-26T20:11:01.718Z,5.10
2018-12-26T20:13:30.980Z,5.10
2018-12-26T20:16:00.207Z,5.10
2018-12-26T20:18:28.937Z,5.20
2018-12-26T20:20:57.657Z,5.20
2018-12-26T20:23:26.662Z,5.20
2018-12-26T20:25:55.382Z,5.20
2018-12-26T20:28:24.367Z,5.20
2018-12-26T20:30:53.086Z,5.20
2018-12-26T20:33:21.814Z,5.20
2018-12-26T20:35:52.486Z,5.20
2018-12-26T20:38:21.502Z,5.20
2018-12-26T20:40:50.737Z,5.20
2018-12-26T20:43:19.473Z,5.30
2018-12-26T20:45:48.477Z,5.30
2018-12-26T20:48:17.213Z,5.30
2018-12-26T20:50:46.261Z,5.20
2018-12-26T20:53:15.112Z,5.20
2018-12-26T20:55:43.859Z,5.30
2018-12-26T20:58:12.600Z,5.30
2018-12-26T21:00:41.316Z,5.30
2018-12-26T21:03:10.034Z,5.30
2018-12-26T21:05:38.996Z,5.30
2018-12-26T21:08:07.974Z,5.30
2018-12-26T21:10:36.829Z,5.30
2018-12-26T21:13:05.809Z,5.30
2018-12-26T21:15:34.550Z,5.30
2018-12-26T21:18:03.580Z,5.30
2018-12-26T21:20:32.325Z,5.30
2018-12-26T21:23:01.296Z,5.30
2018-12-26T21:25:30.133Z,5.30
2018-12-26T21:27:59.109Z,5.40
2018-12-26T21:30:28.177Z,5.40
2018-12-26T21:32:56.956Z,5.40
2018-12-26T21:35:26.009Z,5.40
2018-12-26T21:37:54.984Z,5.30
2018-12-26T21:40:23.737Z,5.40
2018-12-26T21:42:52.742Z,5.40
2018-12-26T21:45:23.698Z,5.40
2018-12-26T21:47:52.037Z,5.40
2018-12-26T21:50:20.786Z,5.40
2018-12-26T21:52:49.557Z,5.50
2018-12-26T21:55:18.501Z,5.40
2018-12-26T21:57:47.490Z,5.40
2018-12-26T22:00:16.292Z,5.50
2018-12-26T22:02:45.021Z,5.50
2018-12-26T22:05:13.816Z,5.50
2018-12-26T22:07:42.965Z,5.50
2018-12-26T22:10:11.946Z,5.50
2018-12-26T22:12:41.242Z,5.50
2018-12-26T22:15:10.001Z,5.50
2018-12-26T22:17:39.005Z,5.50
2018-12-26T22:20:08.289Z,5.50
2018-12-26T22:22:37.262Z,5.50
2018-12-26T22:25:06.167Z,5.50
2018-12-26T22:27:35.256Z,5.50
2018-12-26T22:30:05.225Z,5.50
2018-12-26T22:32:34.293Z,5.50
2018-12-26T22:35:03.413Z,5.50
2018-12-26T22:37:32.164Z,5.50
2018-12-26T22:40:01.207Z,5.50
2018-12-26T22:42:32.958Z,5.50
2018-12-26T22:45:01.963Z,5.50
2018-12-26T22:47:30.734Z,5.50
2018-12-26T22:49:59.818Z,5.50
2018-12-26T22:52:28.953Z,5.50
2018-12-26T22:54:57.686Z,5.50
2018-12-26T22:57:26.645Z,5.50
2018-12-26T22:59:55.380Z,5.50
2018-12-26T23:02:24.246Z,5.50
2018-12-26T23:04:52.962Z,5.50
2018-12-26T23:07:22.721Z,5.50
2018-12-26T23:09:51.673Z,5.60
2018-12-26T23:12:20.672Z,5.60
2018-12-26T23:14:49.466Z,5.60
2018-12-26T23:17:18.426Z,5.60
2018-12-26T23:19:47.410Z,5.60
2018-12-26T23:22:16.925Z,5.60
2018-12-26T23:24:45.900Z,5.70
2018-12-26T23:27:14.639Z,5.70
2018-12-26T23:29:43.396Z,5.70
2018-12-26T23:32:12.121Z,5.70
2018-12-26T23:34:40.825Z,5.70
2018-12-26T23:37:09.657Z,5.70
2018-12-26T23:39:38.657Z,5.70
2018-12-26T23:42:07.381Z,5.80
2018-12-26T23:44:36.140Z,5.80
2018-12-26T23:47:04.971Z,5.80
2018-12-26T23:49:33.681Z,5.80
2018-12-26T23:52:03.486Z,5.80
2018-12-26T23:54:32.292Z,5.80
2018-12-26T23:57:01.032Z,5.80
2018-12-26T23:59:29.840Z,5.80
